sensor_id;sensor_type;location;lat;lon;timestamp;P1;durP1;ratioP1;P2;durP2;ratioP2
9789;SDS011;4934;50.852;8.098;2024-02-14T00:02:24;6.45;;;2.97;;
9789;SDS011;4934;50.852;8.098;2024-02-14T00:04:53;10.02;;;3.90;;
9789;SDS011;4934;50.852;8.098;2024-02-14T00:07:19;9.70;;;2.90;;
9789;SDS011;4934;50.852;8.098;2024-02-14T00:09:46;9.30;;;3.40;;
9789;SDS011;4934;50.852;8.098;2024-02-14T00:12:12;6.10;;;2.30;;
9789;SDS011;4934;50.852;8.098;2024-02-14T00:14:38;8.18;;;2.38;;
9789;SDS011;4934;50.852;8.098;2024-02-14T00:17:04;6.03;;;3.30;;
9789;SDS011;4934;50.852;8.098;2024-02-14T00:19:31;10.18;;;2.25;;
9789;SDS011;4934;50.852;8.098;2024-02-14T00:21:57;6.60;;;2.55;;
9789;SDS011;4934;50.852;8.098;2024-02-14T00:24:23;8.45;;;2.33;;
9789;SDS011;4934;50.852;8.098;2024-02-14T00:26:49;12.85;;;3.08;;
9789;SDS011;4934;50.852;8.098;2024-02-14T00:29:16;5.53;;;2.30;;
9789;SDS011;4934;50.852;8.098;2024-02-14T00:31:41;6.78;;;2.47;;
9789;SDS011;4934;50.852;8.098;2024-02-14T00:34:09;7.50;;;2.53;;
9789;SDS011;4934;50.852;8.098;2024-02-14T00:36:35;9.85;;;3.03;;
9789;SDS011;4934;50.852;8.098;2024-02-14T00:39:01;5.50;;;2.70;;
9789;SDS011;4934;50.852;8.098;2024-02-14T00:41:28;7.20;;;2.63;;
9789;SDS011;4934;50.852;8.098;2024-02-14T00:43:55;7.80;;;2.10;;
9789;SDS011;4934;50.852;8.098;2024-02-14T00:46:21;7.13;;;2.95;;
9789;SDS011;4934;50.852;8.098;2024-02-14T00:48:47;3.72;;;2.35;;
9789;SDS011;4934;50.852;8.098;2024-02-14T00:51:13;6.85;;;2.40;;
9789;SDS011;4934;50.852;8.098;2024-02-14T00:53:40;5.32;;;2.08;;
9789;SDS011;4934;50.852;8.098;2024-02-14T00:56:06;4.80;;;2.20;;
9789;SDS011;4934;50.852;8.098;2024-02-14T00:58:32;9.30;;;2.63;;
9789;SDS011;4934;50.852;8.098;2024-02-14T01:00:58;6.97;;;2.40;;
9789;SDS011;4934;50.852;8.098;2024-02-14T01:03:24;6.07;;;2.35;;
9789;SDS011;4934;50.852;8.098;2024-02-14T01:05:52;6.47;;;2.60;;
9789;SDS011;4934;50.852;8.098;2024-02-14T01:08:18;4.57;;;2.53;;
9789;SDS011;4934;50.852;8.098;2024-02-14T01:10:44;9.98;;;2.03;;
9789;SDS011;4934;50.852;8.098;2024-02-14T01:13:11;17.42;;;4.40;;
9789;SDS011;4934;50.852;8.098;2024-02-14T01:15:38;4.28;;;2.00;;
9789;SDS011;4934;50.852;8.098;2024-02-14T01:18:06;9.05;;;2.47;;
9789;SDS011;4934;50.852;8.098;2024-02-14T01:20:32;6.63;;;2.60;;
9789;SDS011;4934;50.852;8.098;2024-02-14T01:22:57;5.20;;;2.90;;
9789;SDS011;4934;50.852;8.098;2024-02-14T01:25:25;7.28;;;2.42;;
9789;SDS011;4934;50.852;8.098;2024-02-14T01:27:54;7.78;;;2.28;;
9789;SDS011;4934;50.852;8.098;2024-02-14T01:30:21;8.13;;;2.33;;
9789;SDS011;4934;50.852;8.098;2024-02-14T01:32:47;7.97;;;2.33;;
9789;SDS011;4934;50.852;8.098;2024-02-14T01:35:13;7.55;;;2.13;;
9789;SDS011;4934;50.852;8.098;2024-02-14T01:37:38;4.35;;;1.90;;
9789;SDS011;4934;50.852;8.098;2024-02-14T01:40:05;6.75;;;2.10;;
9789;SDS011;4934;50.852;8.098;2024-02-14T01:42:33;5.55;;;2.17;;
9789;SDS011;4934;50.852;8.098;2024-02-14T01:44:59;7.25;;;2.60;;
9789;SDS011;4934;50.852;8.098;2024-02-14T01:47:27;9.75;;;2.35;;
9789;SDS011;4934;50.852;8.098;2024-02-14T01:49:57;6.45;;;1.65;;
9789;SDS011;4934;50.852;8.098;2024-02-14T01:52:24;7.43;;;1.73;;
9789;SDS011;4934;50.852;8.098;2024-02-14T01:54:50;7.07;;;2.80;;
9789;SDS011;4934;50.852;8.098;2024-02-14T01:57:17;4.28;;;1.90;;
9789;SDS011;4934;50.852;8.098;2024-02-14T01:59:43;7.63;;;2.08;;
9789;SDS011;4934;50.852;8.098;2024-02-14T02:02:10;4.22;;;1.98;;
9789;SDS011;4934;50.852;8.098;2024-02-14T02:04:36;3.45;;;1.65;;
9789;SDS011;4934;50.852;8.098;2024-02-14T02:07:02;3.30;;;1.55;;
9789;SDS011;4934;50.852;8.098;2024-02-14T02:09:28;8.57;;;2.35;;
9789;SDS011;4934;50.852;8.098;2024-02-14T02:11:56;7.03;;;1.85;;
9789;SDS011;4934;50.852;8.098;2024-02-14T02:14:22;5.97;;;1.83;;
9789;SDS011;4934;50.852;8.098;2024-02-14T02:16:48;5.75;;;1.80;;
9789;SDS011;4934;50.852;8.098;2024-02-14T02:19:18;4.88;;;1.85;;
9789;SDS011;4934;50.852;8.098;2024-02-14T02:21:44;3.35;;;1.90;;
9789;SDS011;4934;50.852;8.098;2024-02-14T02:24:11;6.15;;;2.00;;
9789;SDS011;4934;50.852;8.098;2024-02-14T02:26:37;3.70;;;1.50;;
9789;SDS011;4934;50.852;8.098;2024-02-14T02:29:03;7.40;;;2.13;;
9789;SDS011;4934;50.852;8.098;2024-02-14T02:31:30;4.95;;;1.90;;
9789;SDS011;4934;50.852;8.098;2024-02-14T02:33:56;4.22;;;1.70;;
9789;SDS011;4934;50.852;8.098;2024-02-14T02:36:22;6.00;;;1.90;;
9789;SDS011;4934;50.852;8.098;2024-02-14T02:38:49;4.25;;;1.95;;
9789;SDS011;4934;50.852;8.098;2024-02-14T02:41:15;4.38;;;2.00;;
9789;SDS011;4934;50.852;8.098;2024-02-14T02:43:41;7.45;;;1.88;;
9789;SDS011;4934;50.852;8.098;2024-02-14T02:46:11;5.38;;;1.67;;
9789;SDS011;4934;50.852;8.098;2024-02-14T02:48:37;2.97;;;1.40;;
9789;SDS011;4934;50.852;8.098;2024-02-14T02:51:03;4.65;;;1.60;;
9789;SDS011;4934;50.852;8.098;2024-02-14T02:53:29;4.22;;;2.15;;
9789;SDS011;4934;50.852;8.098;2024-02-14T02:55:55;4.82;;;1.75;;
9789;SDS011;4934;50.852;8.098;2024-02-14T02:58:22;4.25;;;1.70;;
9789;SDS011;4934;50.852;8.098;2024-02-14T03:00:51;2.80;;;1.70;;
9789;SDS011;4934;50.852;8.098;2024-02-14T03:05:56;5.35;;;1.50;;
9789;SDS011;4934;50.852;8.098;2024-02-14T03:08:21;3.75;;;1.83;;
9789;SDS011;4934;50.852;8.098;2024-02-14T03:10:50;3.47;;;1.88;;
9789;SDS011;4934;50.852;8.098;2024-02-14T03:13:17;5.15;;;1.58;;
9789;SDS011;4934;50.852;8.098;2024-02-14T03:15:42;2.00;;;1.35;;
9789;SDS011;4934;50.852;8.098;2024-02-14T03:18:11;4.80;;;1.58;;
9789;SDS011;4934;50.852;8.098;2024-02-14T03:20:37;3.10;;;1.30;;
9789;SDS011;4934;50.852;8.098;2024-02-14T03:23:03;2.63;;;1.73;;
9789;SDS011;4934;50.852;8.098;2024-02-14T03:25:29;9.02;;;1.60;;
9789;SDS011;4934;50.852;8.098;2024-02-14T03:27:55;4.78;;;1.40;;
9789;SDS011;4934;50.852;8.098;2024-02-14T03:30:26;5.38;;;1.98;;
9789;SDS011;4934;50.852;8.098;2024-02-14T03:32:57;4.40;;;2.10;;
9789;SDS011;4934;50.852;8.098;2024-02-14T03:35:23;2.53;;;1.58;;
9789;SDS011;4934;50.852;8.098;2024-02-14T03:37:52;3.80;;;2.05;;
9789;SDS011;4934;50.852;8.098;2024-02-14T03:40:18;2.88;;;1.60;;
9789;SDS011;4934;50.852;8.098;2024-02-14T03:42:49;4.30;;;1.70;;
9789;SDS011;4934;50.852;8.098;2024-02-14T03:47:55;3.15;;;1.70;;
9789;SDS011;4934;50.852;8.098;2024-02-14T03:50:21;6.88;;;1.90;;
9789;SDS011;4934;50.852;8.098;2024-02-14T03:52:48;3.42;;;1.73;;
9789;SDS011;4934;50.852;8.098;2024-02-14T03:55:14;4.05;;;1.67;;
9789;SDS011;4934;50.852;8.098;2024-02-14T03:57:42;3.17;;;1.60;;
9789;SDS011;4934;50.852;8.098;2024-02-14T04:00:12;4.10;;;1.80;;
9789;SDS011;4934;50.852;8.098;2024-02-14T04:02:39;5.28;;;1.98;;
9789;SDS011;4934;50.852;8.098;2024-02-14T04:05:05;10.35;;;1.73;;
9789;SDS011;4934;50.852;8.098;2024-02-14T04:07:32;8.93;;;3.42;;
9789;SDS011;4934;50.852;8.098;2024-02-14T04:09:59;3.95;;;2.05;;
9789;SDS011;4934;50.852;8.098;2024-02-14T04:12:25;3.83;;;1.75;;
9789;SDS011;4934;50.852;8.098;2024-02-14T04:14:51;4.53;;;1.65;;
9789;SDS011;4934;50.852;8.098;2024-02-14T04:17:17;8.15;;;2.00;;
9789;SDS011;4934;50.852;8.098;2024-02-14T04:19:43;5.65;;;1.70;;
9789;SDS011;4934;50.852;8.098;2024-02-14T04:22:09;3.85;;;1.77;;
9789;SDS011;4934;50.852;8.098;2024-02-14T04:24:35;7.93;;;2.08;;
9789;SDS011;4934;50.852;8.098;2024-02-14T04:27:01;9.63;;;2.95;;
9789;SDS011;4934;50.852;8.098;2024-02-14T04:29:29;3.22;;;2.05;;
9789;SDS011;4934;50.852;8.098;2024-02-14T04:31:56;3.80;;;2.72;;
9789;SDS011;4934;50.852;8.098;2024-02-14T04:34:21;4.68;;;2.05;;
9789;SDS011;4934;50.852;8.098;2024-02-14T04:36:48;3.10;;;1.35;;
9789;SDS011;4934;50.852;8.098;2024-02-14T04:39:14;5.75;;;2.10;;
9789;SDS011;4934;50.852;8.098;2024-02-14T04:41:39;6.97;;;1.83;;
9789;SDS011;4934;50.852;8.098;2024-02-14T04:44:05;4.53;;;1.75;;
9789;SDS011;4934;50.852;8.098;2024-02-14T04:46:33;5.53;;;1.70;;
9789;SDS011;4934;50.852;8.098;2024-02-14T04:49:00;5.47;;;2.00;;
9789;SDS011;4934;50.852;8.098;2024-02-14T04:51:29;5.28;;;2.22;;
9789;SDS011;4934;50.852;8.098;2024-02-14T04:53:56;9.13;;;2.00;;
9789;SDS011;4934;50.852;8.098;2024-02-14T04:56:26;4.32;;;1.77;;
9789;SDS011;4934;50.852;8.098;2024-02-14T04:58:55;5.75;;;2.20;;
9789;SDS011;4934;50.852;8.098;2024-02-14T05:01:21;6.30;;;2.13;;
9789;SDS011;4934;50.852;8.098;2024-02-14T05:03:47;4.30;;;1.80;;
9789;SDS011;4934;50.852;8.098;2024-02-14T05:06:14;3.53;;;2.10;;
9789;SDS011;4934;50.852;8.098;2024-02-14T05:08:42;6.55;;;2.00;;
9789;SDS011;4934;50.852;8.098;2024-02-14T05:11:09;4.95;;;2.30;;
9789;SDS011;4934;50.852;8.098;2024-02-14T05:13:35;9.65;;;2.60;;
9789;SDS011;4934;50.852;8.098;2024-02-14T05:16:05;3.63;;;1.75;;
9789;SDS011;4934;50.852;8.098;2024-02-14T05:18:35;3.53;;;1.88;;
9789;SDS011;4934;50.852;8.098;2024-02-14T05:21:04;5.03;;;2.28;;
9789;SDS011;4934;50.852;8.098;2024-02-14T05:23:33;3.25;;;1.80;;
9789;SDS011;4934;50.852;8.098;2024-02-14T05:26:01;3.08;;;1.80;;
9789;SDS011;4934;50.852;8.098;2024-02-14T05:28:32;5.20;;;2.20;;
9789;SDS011;4934;50.852;8.098;2024-02-14T05:31:25;4.03;;;2.13;;
9789;SDS011;4934;50.852;8.098;2024-02-14T05:34:51;8.88;;;4.07;;
9789;SDS011;4934;50.852;8.098;2024-02-14T06:31:37;6.70;;;2.45;;
9789;SDS011;4934;50.852;8.098;2024-02-14T06:34:03;4.45;;;2.58;;
9789;SDS011;4934;50.852;8.098;2024-02-14T06:36:32;9.50;;;3.35;;
9789;SDS011;4934;50.852;8.098;2024-02-14T06:44:08;5.50;;;2.88;;
9789;SDS011;4934;50.852;8.098;2024-02-14T06:51:45;5.75;;;3.10;;
9789;SDS011;4934;50.852;8.098;2024-02-14T07:09:43;7.57;;;2.97;;
9789;SDS011;4934;50.852;8.098;2024-02-14T07:32:45;8.38;;;3.30;;
9789;SDS011;4934;50.852;8.098;2024-02-14T07:40:17;5.43;;;3.35;;
9789;SDS011;4934;50.852;8.098;2024-02-14T08:18:58;5.53;;;2.67;;
9789;SDS011;4934;50.852;8.098;2024-02-14T08:21:26;6.18;;;2.67;;
9789;SDS011;4934;50.852;8.098;2024-02-14T08:23:53;4.90;;;2.55;;
9789;SDS011;4934;50.852;8.098;2024-02-14T08:26:21;4.72;;;2.30;;
9789;SDS011;4934;50.852;8.098;2024-02-14T08:28:48;3.42;;;2.22;;
9789;SDS011;4934;50.852;8.098;2024-02-14T08:31:14;5.10;;;2.63;;
9789;SDS011;4934;50.852;8.098;2024-02-14T08:33:40;5.55;;;2.83;;
9789;SDS011;4934;50.852;8.098;2024-02-14T08:36:08;4.68;;;2.63;;
9789;SDS011;4934;50.852;8.098;2024-02-14T08:38:34;3.67;;;2.13;;
9789;SDS011;4934;50.852;8.098;2024-02-14T08:41:04;6.18;;;2.42;;
9789;SDS011;4934;50.852;8.098;2024-02-14T08:43:30;6.55;;;2.30;;
9789;SDS011;4934;50.852;8.098;2024-02-14T08:45:56;7.00;;;2.00;;
9789;SDS011;4934;50.852;8.098;2024-02-14T08:48:22;5.07;;;2.22;;
9789;SDS011;4934;50.852;8.098;2024-02-14T08:50:48;3.88;;;2.08;;
9789;SDS011;4934;50.852;8.098;2024-02-14T08:53:15;5.90;;;2.03;;
9789;SDS011;4934;50.852;8.098;2024-02-14T08:55:41;7.07;;;2.42;;
9789;SDS011;4934;50.852;8.098;2024-02-14T08:58:07;5.53;;;2.15;;
9789;SDS011;4934;50.852;8.098;2024-02-14T09:00:36;2.65;;;1.88;;
9789;SDS011;4934;50.852;8.098;2024-02-14T09:03:04;4.22;;;2.45;;
9789;SDS011;4934;50.852;8.098;2024-02-14T09:05:30;4.57;;;1.83;;
9789;SDS011;4934;50.852;8.098;2024-02-14T09:08:10;3.47;;;2.17;;
9789;SDS011;4934;50.852;8.098;2024-02-14T09:10:42;5.80;;;1.77;;
9789;SDS011;4934;50.852;8.098;2024-02-14T09:13:16;3.15;;;1.48;;
9789;SDS011;4934;50.852;8.098;2024-02-14T09:15:55;9.82;;;3.35;;
9789;SDS011;4934;50.852;8.098;2024-02-14T09:18:27;4.20;;;1.20;;
9789;SDS011;4934;50.852;8.098;2024-02-14T09:20:54;4.57;;;1.45;;
9789;SDS011;4934;50.852;8.098;2024-02-14T09:23:21;4.97;;;1.40;;
9789;SDS011;4934;50.852;8.098;2024-02-14T09:25:49;3.42;;;1.40;;
9789;SDS011;4934;50.852;8.098;2024-02-14T09:28:15;1.90;;;0.93;;
9789;SDS011;4934;50.852;8.098;2024-02-14T09:30:42;3.40;;;1.90;;
9789;SDS011;4934;50.852;8.098;2024-02-14T09:33:08;4.47;;;1.52;;
9789;SDS011;4934;50.852;8.098;2024-02-14T09:35:37;2.63;;;1.50;;
9789;SDS011;4934;50.852;8.098;2024-02-14T09:38:15;4.68;;;1.42;;
9789;SDS011;4934;50.852;8.098;2024-02-14T11:08:42;1.63;;;0.80;;
9789;SDS011;4934;50.852;8.098;2024-02-14T11:13:55;0.95;;;0.63;;
9789;SDS011;4934;50.852;8.098;2024-02-14T11:16:25;1.35;;;0.70;;
9789;SDS011;4934;50.852;8.098;2024-02-14T11:19:07;1.65;;;0.90;;
9789;SDS011;4934;50.852;8.098;2024-02-14T11:21:40;1.30;;;0.88;;
9789;SDS011;4934;50.852;8.098;2024-02-14T11:24:14;2.83;;;0.90;;
9789;SDS011;4934;50.852;8.098;2024-02-14T11:26:50;2.22;;;0.80;;
9789;SDS011;4934;50.852;8.098;2024-02-14T11:29:17;1.30;;;0.85;;
9789;SDS011;4934;50.852;8.098;2024-02-14T11:31:44;1.88;;;0.98;;
9789;SDS011;4934;50.852;8.098;2024-02-14T11:34:16;3.28;;;1.00;;
9789;SDS011;4934;50.852;8.098;2024-02-14T11:36:42;1.08;;;0.70;;
9789;SDS011;4934;50.852;8.098;2024-02-14T11:39:10;1.73;;;0.70;;
9789;SDS011;4934;50.852;8.098;2024-02-14T11:41:39;2.00;;;0.80;;
9789;SDS011;4934;50.852;8.098;2024-02-14T11:44:07;3.00;;;0.63;;
9789;SDS011;4934;50.852;8.098;2024-02-14T11:46:34;2.42;;;1.05;;
9789;SDS011;4934;50.852;8.098;2024-02-14T11:49:01;2.25;;;1.05;;
9789;SDS011;4934;50.852;8.098;2024-02-14T11:51:28;3.17;;;1.23;;
9789;SDS011;4934;50.852;8.098;2024-02-14T11:53:58;1.88;;;1.08;;
9789;SDS011;4934;50.852;8.098;2024-02-14T11:56:40;2.95;;;1.00;;
9789;SDS011;4934;50.852;8.098;2024-02-14T11:59:06;2.90;;;0.80;;
9789;SDS011;4934;50.852;8.098;2024-02-14T12:01:37;2.88;;;1.42;;
9789;SDS011;4934;50.852;8.098;2024-02-14T12:04:07;3.03;;;1.58;;
9789;SDS011;4934;50.852;8.098;2024-02-14T12:07:16;2.13;;;1.13;;
9789;SDS011;4934;50.852;8.098;2024-02-14T12:09:42;2.75;;;1.77;;
9789;SDS011;4934;50.852;8.098;2024-02-14T12:12:08;1.98;;;0.90;;
9789;SDS011;4934;50.852;8.098;2024-02-14T12:14:34;7.82;;;1.40;;
9789;SDS011;4934;50.852;8.098;2024-02-14T12:17:00;1.92;;;1.23;;
9789;SDS011;4934;50.852;8.098;2024-02-14T12:19:31;3.55;;;0.98;;
9789;SDS011;4934;50.852;8.098;2024-02-14T12:21:58;3.90;;;1.08;;
9789;SDS011;4934;50.852;8.098;2024-02-14T12:24:27;2.10;;;1.10;;
9789;SDS011;4934;50.852;8.098;2024-02-14T12:26:54;5.38;;;0.80;;
9789;SDS011;4934;50.852;8.098;2024-02-14T12:29:20;3.08;;;0.82;;
9789;SDS011;4934;50.852;8.098;2024-02-14T12:39:28;1.13;;;0.90;;
9789;SDS011;4934;50.852;8.098;2024-02-14T12:47:01;3.60;;;0.95;;
9789;SDS011;4934;50.852;8.098;2024-02-14T12:49:27;3.70;;;1.30;;
9789;SDS011;4934;50.852;8.098;2024-02-14T12:56:57;2.50;;;1.25;;
9789;SDS011;4934;50.852;8.098;2024-02-14T12:59:26;1.88;;;1.17;;
9789;SDS011;4934;50.852;8.098;2024-02-14T13:06:52;1.30;;;1.00;;
9789;SDS011;4934;50.852;8.098;2024-02-14T13:11:50;3.95;;;1.10;;
9789;SDS011;4934;50.852;8.098;2024-02-14T13:14:16;3.78;;;1.08;;
9789;SDS011;4934;50.852;8.098;2024-02-14T13:16:44;2.65;;;1.10;;
9789;SDS011;4934;50.852;8.098;2024-02-14T13:19:10;2.40;;;1.20;;
9789;SDS011;4934;50.852;8.098;2024-02-14T13:21:36;2.83;;;1.20;;
9789;SDS011;4934;50.852;8.098;2024-02-14T13:24:03;1.52;;;0.90;;
9789;SDS011;4934;50.852;8.098;2024-02-14T13:26:29;2.35;;;1.00;;
9789;SDS011;4934;50.852;8.098;2024-02-14T13:28:55;1.77;;;0.90;;
9789;SDS011;4934;50.852;8.098;2024-02-14T13:31:21;3.25;;;1.10;;
9789;SDS011;4934;50.852;8.098;2024-02-14T13:36:20;2.03;;;1.10;;
9789;SDS011;4934;50.852;8.098;2024-02-14T13:38:48;4.15;;;1.23;;
9789;SDS011;4934;50.852;8.098;2024-02-14T13:41:17;4.70;;;1.10;;
9789;SDS011;4934;50.852;8.098;2024-02-14T13:43:42;3.75;;;1.27;;
9789;SDS011;4934;50.852;8.098;2024-02-14T13:46:09;1.40;;;1.23;;
9789;SDS011;4934;50.852;8.098;2024-02-14T13:48:35;1.92;;;1.02;;
9789;SDS011;4934;50.852;8.098;2024-02-14T13:51:01;2.45;;;1.60;;
9789;SDS011;4934;50.852;8.098;2024-02-14T13:53:37;1.85;;;1.08;;
9789;SDS011;4934;50.852;8.098;2024-02-14T13:56:04;1.45;;;1.00;;
9789;SDS011;4934;50.852;8.098;2024-02-14T13:58:30;2.63;;;1.17;;
9789;SDS011;4934;50.852;8.098;2024-02-14T14:00:56;3.28;;;1.70;;
9789;SDS011;4934;50.852;8.098;2024-02-14T14:03:22;3.72;;;1.15;;
9789;SDS011;4934;50.852;8.098;2024-02-14T14:05:51;1.67;;;1.30;;
9789;SDS011;4934;50.852;8.098;2024-02-14T14:08:17;1.48;;;0.98;;
9789;SDS011;4934;50.852;8.098;2024-02-14T14:10:42;5.22;;;1.65;;
9789;SDS011;4934;50.852;8.098;2024-02-14T14:13:10;3.35;;;1.20;;
9789;SDS011;4934;50.852;8.098;2024-02-14T14:15:36;3.30;;;1.30;;
9789;SDS011;4934;50.852;8.098;2024-02-14T14:18:02;2.30;;;1.13;;
9789;SDS011;4934;50.852;8.098;2024-02-14T14:20:28;3.42;;;1.00;;
9789;SDS011;4934;50.852;8.098;2024-02-14T14:22:57;6.65;;;1.60;;
9789;SDS011;4934;50.852;8.098;2024-02-14T14:25:23;2.55;;;1.10;;
9789;SDS011;4934;50.852;8.098;2024-02-14T14:27:49;2.00;;;1.27;;
9789;SDS011;4934;50.852;8.098;2024-02-14T14:30:14;2.33;;;1.30;;
9789;SDS011;4934;50.852;8.098;2024-02-14T14:32:40;3.00;;;1.42;;
9789;SDS011;4934;50.852;8.098;2024-02-14T14:35:06;1.98;;;1.45;;
9789;SDS011;4934;50.852;8.098;2024-02-14T14:40:03;2.35;;;0.90;;
9789;SDS011;4934;50.852;8.098;2024-02-14T14:42:32;1.40;;;1.20;;
9789;SDS011;4934;50.852;8.098;2024-02-14T14:44:58;2.03;;;1.20;;
9789;SDS011;4934;50.852;8.098;2024-02-14T14:47:24;1.83;;;1.13;;
9789;SDS011;4934;50.852;8.098;2024-02-14T14:49:50;2.63;;;1.20;;
9789;SDS011;4934;50.852;8.098;2024-02-14T14:52:16;1.80;;;1.20;;
9789;SDS011;4934;50.852;8.098;2024-02-14T14:54:45;3.75;;;1.52;;
9789;SDS011;4934;50.852;8.098;2024-02-14T14:57:11;4.78;;;1.20;;
9789;SDS011;4934;50.852;8.098;2024-02-14T14:59:43;2.70;;;1.30;;
9789;SDS011;4934;50.852;8.098;2024-02-14T15:02:09;2.00;;;1.05;;
9789;SDS011;4934;50.852;8.098;2024-02-14T15:04:35;2.00;;;0.90;;
9789;SDS011;4934;50.852;8.098;2024-02-14T15:07:02;1.05;;;0.90;;
9789;SDS011;4934;50.852;8.098;2024-02-14T15:09:29;3.17;;;1.80;;
9789;SDS011;4934;50.852;8.098;2024-02-14T15:11:54;2.63;;;1.52;;
9789;SDS011;4934;50.852;8.098;2024-02-14T15:14:21;3.47;;;1.33;;
9789;SDS011;4934;50.852;8.098;2024-02-14T15:16:47;1.73;;;1.13;;
9789;SDS011;4934;50.852;8.098;2024-02-14T15:19:13;2.67;;;1.42;;
9789;SDS011;4934;50.852;8.098;2024-02-14T15:21:39;3.17;;;1.40;;
9789;SDS011;4934;50.852;8.098;2024-02-14T15:24:04;1.73;;;1.17;;
9789;SDS011;4934;50.852;8.098;2024-02-14T15:26:31;2.63;;;1.30;;
9789;SDS011;4934;50.852;8.098;2024-02-14T15:29:14;2.13;;;1.33;;
9789;SDS011;4934;50.852;8.098;2024-02-14T15:32:01;2.38;;;1.50;;
9789;SDS011;4934;50.852;8.098;2024-02-14T15:34:45;1.23;;;1.02;;
9789;SDS011;4934;50.852;8.098;2024-02-14T15:37:11;1.70;;;1.17;;
9789;SDS011;4934;50.852;8.098;2024-02-14T15:39:37;3.13;;;1.30;;
9789;SDS011;4934;50.852;8.098;2024-02-14T15:42:03;2.95;;;1.02;;
9789;SDS011;4934;50.852;8.098;2024-02-14T15:44:32;1.50;;;1.00;;
9789;SDS011;4934;50.852;8.098;2024-02-14T15:47:03;2.63;;;1.30;;
9789;SDS011;4934;50.852;8.098;2024-02-14T15:49:29;2.20;;;1.20;;
9789;SDS011;4934;50.852;8.098;2024-02-14T15:51:55;2.40;;;1.40;;
9789;SDS011;4934;50.852;8.098;2024-02-14T15:54:21;1.70;;;1.30;;
9789;SDS011;4934;50.852;8.098;2024-02-14T15:56:47;2.35;;;1.30;;
9789;SDS011;4934;50.852;8.098;2024-02-14T15:59:34;3.20;;;1.33;;
9789;SDS011;4934;50.852;8.098;2024-02-14T16:02:09;3.38;;;1.40;;
9789;SDS011;4934;50.852;8.098;2024-02-14T16:05:15;2.38;;;1.33;;
9789;SDS011;4934;50.852;8.098;2024-02-14T16:39:44;1.77;;;0.88;;
9789;SDS011;4934;50.852;8.098;2024-02-14T16:44:51;1.52;;;0.85;;
9789;SDS011;4934;50.852;8.098;2024-02-14T16:47:17;1.90;;;1.08;;
9789;SDS011;4934;50.852;8.098;2024-02-14T16:49:48;1.23;;;0.70;;
9789;SDS011;4934;50.852;8.098;2024-02-14T16:52:19;2.45;;;0.80;;
9789;SDS011;4934;50.852;8.098;2024-02-14T16:57:21;3.15;;;0.98;;
9789;SDS011;4934;50.852;8.098;2024-02-14T17:17:54;2.00;;;1.15;;
9789;SDS011;4934;50.852;8.098;2024-02-14T17:25:50;1.23;;;0.90;;
9789;SDS011;4934;50.852;8.098;2024-02-14T17:28:16;1.52;;;0.80;;
9789;SDS011;4934;50.852;8.098;2024-02-14T17:30:43;2.30;;;1.45;;
9789;SDS011;4934;50.852;8.098;2024-02-14T17:33:09;2.40;;;1.33;;
9789;SDS011;4934;50.852;8.098;2024-02-14T17:35:35;1.95;;;1.50;;
9789;SDS011;4934;50.852;8.098;2024-02-14T17:38:01;3.47;;;1.30;;
9789;SDS011;4934;50.852;8.098;2024-02-14T17:40:27;9.15;;;3.97;;
9789;SDS011;4934;50.852;8.098;2024-02-14T17:42:53;4.15;;;1.85;;
9789;SDS011;4934;50.852;8.098;2024-02-14T17:45:19;1.48;;;1.15;;
9789;SDS011;4934;50.852;8.098;2024-02-14T17:47:45;1.67;;;1.10;;
9789;SDS011;4934;50.852;8.098;2024-02-14T17:50:11;2.15;;;1.00;;
9789;SDS011;4934;50.852;8.098;2024-02-14T17:52:37;2.63;;;1.10;;
9789;SDS011;4934;50.852;8.098;2024-02-14T17:55:03;1.10;;;1.00;;
9789;SDS011;4934;50.852;8.098;2024-02-14T18:00:28;1.63;;;1.50;;
9789;SDS011;4934;50.852;8.098;2024-02-14T18:02:54;1.50;;;1.00;;
9789;SDS011;4934;50.852;8.098;2024-02-14T18:05:20;1.77;;;1.05;;
9789;SDS011;4934;50.852;8.098;2024-02-14T18:07:46;2.03;;;1.10;;
9789;SDS011;4934;50.852;8.098;2024-02-14T18:10:12;3.20;;;1.00;;
9789;SDS011;4934;50.852;8.098;2024-02-14T18:12:39;2.00;;;0.85;;
9789;SDS011;4934;50.852;8.098;2024-02-14T18:15:05;0.88;;;0.88;;
9789;SDS011;4934;50.852;8.098;2024-02-14T18:17:32;5.03;;;2.05;;
9789;SDS011;4934;50.852;8.098;2024-02-14T18:19:59;15.48;;;7.25;;
9789;SDS011;4934;50.852;8.098;2024-02-14T18:22:25;9.25;;;4.53;;
9789;SDS011;4934;50.852;8.098;2024-02-14T18:24:51;11.15;;;6.43;;
9789;SDS011;4934;50.852;8.098;2024-02-14T18:27:17;3.25;;;2.50;;
9789;SDS011;4934;50.852;8.098;2024-02-14T18:29:44;1.88;;;1.10;;
9789;SDS011;4934;50.852;8.098;2024-02-14T18:32:10;1.90;;;1.10;;
9789;SDS011;4934;50.852;8.098;2024-02-14T18:34:36;2.65;;;1.15;;
9789;SDS011;4934;50.852;8.098;2024-02-14T18:37:03;2.72;;;1.40;;
9789;SDS011;4934;50.852;8.098;2024-02-14T18:39:28;6.43;;;1.15;;
9789;SDS011;4934;50.852;8.098;2024-02-14T18:41:54;4.18;;;1.60;;
9789;SDS011;4934;50.852;8.098;2024-02-14T18:44:20;3.70;;;1.48;;
9789;SDS011;4934;50.852;8.098;2024-02-14T18:46:46;3.00;;;1.50;;
9789;SDS011;4934;50.852;8.098;2024-02-14T18:49:12;2.42;;;1.55;;
9789;SDS011;4934;50.852;8.098;2024-02-14T18:51:38;2.63;;;1.63;;
9789;SDS011;4934;50.852;8.098;2024-02-14T18:54:06;2.45;;;1.15;;
9789;SDS011;4934;50.852;8.098;2024-02-14T18:59:06;3.28;;;2.28;;
9789;SDS011;4934;50.852;8.098;2024-02-14T19:01:32;3.00;;;1.90;;
9789;SDS011;4934;50.852;8.098;2024-02-14T19:03:58;2.00;;;1.40;;
9789;SDS011;4934;50.852;8.098;2024-02-14T19:06:44;6.47;;;2.08;;
9789;SDS011;4934;50.852;8.098;2024-02-14T19:09:10;3.38;;;1.85;;
9789;SDS011;4934;50.852;8.098;2024-02-14T19:11:38;3.33;;;1.80;;
9789;SDS011;4934;50.852;8.098;2024-02-14T19:14:04;4.60;;;1.60;;
9789;SDS011;4934;50.852;8.098;2024-02-14T19:16:41;2.28;;;1.55;;
9789;SDS011;4934;50.852;8.098;2024-02-14T19:19:12;3.75;;;1.85;;
9789;SDS011;4934;50.852;8.098;2024-02-14T19:25:44;4.40;;;1.88;;
9789;SDS011;4934;50.852;8.098;2024-02-14T19:28:12;2.72;;;1.85;;
9789;SDS011;4934;50.852;8.098;2024-02-14T19:30:48;2.20;;;1.65;;
9789;SDS011;4934;50.852;8.098;2024-02-14T19:33:39;2.42;;;1.73;;
9789;SDS011;4934;50.852;8.098;2024-02-14T19:36:12;3.67;;;1.98;;
9789;SDS011;4934;50.852;8.098;2024-02-14T19:38:46;2.17;;;1.65;;
9789;SDS011;4934;50.852;8.098;2024-02-14T19:41:27;2.83;;;2.03;;
9789;SDS011;4934;50.852;8.098;2024-02-14T19:44:21;5.25;;;2.47;;
9789;SDS011;4934;50.852;8.098;2024-02-14T19:47:01;3.38;;;2.00;;
9789;SDS011;4934;50.852;8.098;2024-02-14T19:49:32;4.47;;;2.00;;
9789;SDS011;4934;50.852;8.098;2024-02-14T19:55:46;3.05;;;2.05;;
9789;SDS011;4934;50.852;8.098;2024-02-14T19:58:20;3.28;;;2.05;;
9789;SDS011;4934;50.852;8.098;2024-02-14T20:00:46;3.63;;;1.52;;
9789;SDS011;4934;50.852;8.098;2024-02-14T20:03:12;3.08;;;1.55;;
9789;SDS011;4934;50.852;8.098;2024-02-14T20:05:39;3.35;;;1.75;;
9789;SDS011;4934;50.852;8.098;2024-02-14T20:08:05;3.50;;;1.80;;
9789;SDS011;4934;50.852;8.098;2024-02-14T20:10:33;3.23;;;1.67;;
9789;SDS011;4934;50.852;8.098;2024-02-14T20:13:06;2.40;;;1.80;;
9789;SDS011;4934;50.852;8.098;2024-02-14T20:15:57;2.63;;;1.60;;
9789;SDS011;4934;50.852;8.098;2024-02-14T20:18:46;3.15;;;2.15;;
9789;SDS011;4934;50.852;8.098;2024-02-14T20:21:24;1.85;;;1.42;;
9789;SDS011;4934;50.852;8.098;2024-02-14T20:24:33;2.08;;;1.48;;
9789;SDS011;4934;50.852;8.098;2024-02-14T20:27:05;3.92;;;1.85;;
9789;SDS011;4934;50.852;8.098;2024-02-14T20:29:36;2.65;;;1.60;;
9789;SDS011;4934;50.852;8.098;2024-02-14T20:32:03;4.07;;;1.90;;
9789;SDS011;4934;50.852;8.098;2024-02-14T20:34:35;2.72;;;1.90;;
9789;SDS011;4934;50.852;8.098;2024-02-14T20:37:27;4.28;;;2.22;;
9789;SDS011;4934;50.852;8.098;2024-02-14T20:46:09;3.95;;;1.67;;
9789;SDS011;4934;50.852;8.098;2024-02-14T20:49:00;2.70;;;1.90;;
9789;SDS011;4934;50.852;8.098;2024-02-14T20:51:35;4.40;;;2.05;;
9789;SDS011;4934;50.852;8.098;2024-02-14T20:54:16;3.35;;;2.20;;
9789;SDS011;4934;50.852;8.098;2024-02-14T20:56:44;4.60;;;2.30;;
9789;SDS011;4934;50.852;8.098;2024-02-14T20:59:14;4.20;;;2.03;;
9789;SDS011;4934;50.852;8.098;2024-02-14T21:01:42;3.72;;;1.70;;
9789;SDS011;4934;50.852;8.098;2024-02-14T21:04:17;4.93;;;2.00;;
9789;SDS011;4934;50.852;8.098;2024-02-14T21:06:46;2.05;;;1.52;;
9789;SDS011;4934;50.852;8.098;2024-02-14T21:09:12;2.50;;;1.80;;
9789;SDS011;4934;50.852;8.098;2024-02-14T21:11:55;4.07;;;1.83;;
9789;SDS011;4934;50.852;8.098;2024-02-14T21:14:25;3.22;;;1.85;;